sensor_id;sensor_type;location;lat;lon;timestamp;temperature;humidity
27900;DHT22;15243;50.726;7.080;2023-01-08T00:01:09;10.80;99.90
27900;DHT22;15243;50.726;7.080;2023-01-08T00:03:37;10.70;99.90
27900;DHT22;15243;50.726;7.080;2023-01-08T00:06:07;10.70;99.90
27900;DHT22;15243;50.726;7.080;2023-01-08T00:08:34;10.70;99.90
27900;DHT22;15243;50.726;7.080;2023-01-08T00:11:01;10.80;99.90
27900;DHT22;15243;50.726;7.080;2023-01-08T00:13:28;10.70;99.90
27900;DHT22;15243;50.726;7.080;2023-01-08T00:15:55;10.70;99.90
27900;DHT22;15243;50.726;7.080;2023-01-08T00:18:21;10.70;99.90
27900;DHT22;15243;50.726;7.080;2023-01-08T00:20:49;10.70;99.90
27900;DHT22;15243;50.726;7.080;2023-01-08T00:23:18;10.70;99.90
27900;DHT22;15243;50.726;7.080;2023-01-08T00:25:45;10.70;99.90
27900;DHT22;15243;50.726;7.080;2023-01-08T00:28:12;10.70;99.90
27900;DHT22;15243;50.726;7.080;2023-01-08T00:30:41;10.70;99.90
27900;DHT22;15243;50.726;7.080;2023-01-08T00:33:09;10.80;99.90
27900;DHT22;15243;50.726;7.080;2023-01-08T00:35:39;10.70;99.90
27900;DHT22;15243;50.726;7.080;2023-01-08T00:38:06;10.70;99.90
27900;DHT22;15243;50.726;7.080;2023-01-08T00:40:33;10.60;99.90
27900;DHT22;15243;50.726;7.080;2023-01-08T00:43:00;10.70;99.90
27900;DHT22;15243;50.726;7.080;2023-01-08T00:45:27;10.60;99.90
27900;DHT22;15243;50.726;7.080;2023-01-08T00:47:54;10.60;99.90
27900;DHT22;15243;50.726;7.080;2023-01-08T00:50:21;10.70;99.90
27900;DHT22;15243;50.726;7.080;2023-01-08T00:52:48;10.70;99.90
27900;DHT22;15243;50.726;7.080;2023-01-08T00:55:15;10.70;99.90
27900;DHT22;15243;50.726;7.080;2023-01-08T00:57:42;10.80;99.90
27900;DHT22;15243;50.726;7.080;2023-01-08T01:00:12;10.70;99.90
27900;DHT22;15243;50.726;7.080;2023-01-08T01:02:40;10.70;99.90
27900;DHT22;15243;50.726;7.080;2023-01-08T01:05:07;10.70;99.90
27900;DHT22;15243;50.726;7.080;2023-01-08T01:07:35;10.70;99.90
27900;DHT22;15243;50.726;7.080;2023-01-08T01:10:03;10.70;99.90
27900;DHT22;15243;50.726;7.080;2023-01-08T01:12:29;10.70;99.90
27900;DHT22;15243;50.726;7.080;2023-01-08T01:14:56;10.60;99.90
27900;DHT22;15243;50.726;7.080;2023-01-08T01:17:23;10.70;99.90
27900;DHT22;15243;50.726;7.080;2023-01-08T01:19:50;10.70;99.90
27900;DHT22;15243;50.726;7.080;2023-01-08T01:22:17;10.60;99.90
27900;DHT22;15243;50.726;7.080;2023-01-08T01:24:44;10.70;99.90
27900;DHT22;15243;50.726;7.080;2023-01-08T01:27:10;10.80;99.90
27900;DHT22;15243;50.726;7.080;2023-01-08T01:29:37;10.70;99.90
27900;DHT22;15243;50.726;7.080;2023-01-08T01:32:04;10.70;99.90
27900;DHT22;15243;50.726;7.080;2023-01-08T01:34:31;10.70;99.90
27900;DHT22;15243;50.726;7.080;2023-01-08T01:36:58;10.70;99.90
27900;DHT22;15243;50.726;7.080;2023-01-08T01:39:25;10.70;99.90
27900;DHT22;15243;50.726;7.080;2023-01-08T01:41:52;10.60;99.90
27900;DHT22;15243;50.726;7.080;2023-01-08T01:47:35;10.60;99.90
27900;DHT22;15243;50.726;7.080;2023-01-08T01:50:29;10.60;99.90
27900;DHT22;15243;50.726;7.080;2023-01-08T01:53:07;10.70;99.90
27900;DHT22;15243;50.726;7.080;2023-01-08T01:55:39;10.70;99.90
27900;DHT22;15243;50.726;7.080;2023-01-08T01:58:15;10.70;99.90
27900;DHT22;15243;50.726;7.080;2023-01-08T02:00:43;10.70;99.90
27900;DHT22;15243;50.726;7.080;2023-01-08T02:03:11;10.70;99.90
27900;DHT22;15243;50.726;7.080;2023-01-08T02:08:24;10.70;99.90
27900;DHT22;15243;50.726;7.080;2023-01-08T02:11:00;10.80;99.90
27900;DHT22;15243;50.726;7.080;2023-01-08T02:13:32;10.70;99.90
27900;DHT22;15243;50.726;7.080;2023-01-08T02:16:11;10.70;99.90
27900;DHT22;15243;50.726;7.080;2023-01-08T02:18:49;10.70;99.90
27900;DHT22;15243;50.726;7.080;2023-01-08T02:22:05;10.70;99.90
27900;DHT22;15243;50.726;7.080;2023-01-08T02:27:13;10.70;99.90
27900;DHT22;15243;50.726;7.080;2023-01-08T02:29:42;10.60;99.90
27900;DHT22;15243;50.726;7.080;2023-01-08T02:32:10;10.70;99.90
27900;DHT22;15243;50.726;7.080;2023-01-08T02:34:37;10.70;99.90
27900;DHT22;15243;50.726;7.080;2023-01-08T02:37:03;10.70;99.90
27900;DHT22;15243;50.726;7.080;2023-01-08T02:42:19;10.60;99.90
27900;DHT22;15243;50.726;7.080;2023-01-08T02:48:04;10.60;99.90
27900;DHT22;15243;50.726;7.080;2023-01-08T02:53:31;10.70;99.90
27900;DHT22;15243;50.726;7.080;2023-01-08T02:56:03;10.70;99.90
27900;DHT22;15243;50.726;7.080;2023-01-08T02:58:32;10.70;99.90
27900;DHT22;15243;50.726;7.080;2023-01-08T03:01:06;10.70;99.90
27900;DHT22;15243;50.726;7.080;2023-01-08T03:03:34;10.70;99.90
27900;DHT22;15243;50.726;7.080;2023-01-08T03:06:12;10.80;99.90
27900;DHT22;15243;50.726;7.080;2023-01-08T03:08:41;10.80;99.90
27900;DHT22;15243;50.726;7.080;2023-01-08T03:11:11;10.70;99.90
27900;DHT22;15243;50.726;7.080;2023-01-08T03:14:01;10.80;99.90
27900;DHT22;15243;50.726;7.080;2023-01-08T03:16:36;10.80;99.90
27900;DHT22;15243;50.726;7.080;2023-01-08T03:21:48;10.80;99.90
27900;DHT22;15243;50.726;7.080;2023-01-08T03:24:20;10.80;99.90
27900;DHT22;15243;50.726;7.080;2023-01-08T03:26:49;10.90;99.90
27900;DHT22;15243;50.726;7.080;2023-01-08T03:29:19;10.80;99.90
27900;DHT22;15243;50.726;7.080;2023-01-08T03:31:48;10.80;99.90
27900;DHT22;15243;50.726;7.080;2023-01-08T03:34:15;10.80;99.90
27900;DHT22;15243;50.726;7.080;2023-01-08T03:36:45;10.90;99.90
27900;DHT22;15243;50.726;7.080;2023-01-08T03:39:22;10.90;99.90
27900;DHT22;15243;50.726;7.080;2023-01-08T03:41:54;10.90;99.90
27900;DHT22;15243;50.726;7.080;2023-01-08T03:44:22;10.80;99.90
27900;DHT22;15243;50.726;7.080;2023-01-08T03:46:53;10.80;99.90
27900;DHT22;15243;50.726;7.080;2023-01-08T03:49:21;10.80;99.90
27900;DHT22;15243;50.726;7.080;2023-01-08T03:51:50;10.80;99.90
27900;DHT22;15243;50.726;7.080;2023-01-08T03:54:19;10.90;99.90
27900;DHT22;15243;50.726;7.080;2023-01-08T03:56:47;10.80;99.90
27900;DHT22;15243;50.726;7.080;2023-01-08T03:59:14;10.70;99.90
27900;DHT22;15243;50.726;7.080;2023-01-08T04:01:41;10.80;99.90
27900;DHT22;15243;50.726;7.080;2023-01-08T04:04:10;10.80;99.90
27900;DHT22;15243;50.726;7.080;2023-01-08T04:06:37;10.80;99.90
27900;DHT22;15243;50.726;7.080;2023-01-08T04:09:04;10.80;99.90
27900;DHT22;15243;50.726;7.080;2023-01-08T04:11:31;10.70;99.90
27900;DHT22;15243;50.726;7.080;2023-01-08T04:13:58;10.80;99.90
27900;DHT22;15243;50.726;7.080;2023-01-08T04:16:25;10.70;99.90
27900;DHT22;15243;50.726;7.080;2023-01-08T04:18:51;10.80;99.90
27900;DHT22;15243;50.726;7.080;2023-01-08T04:21:18;10.70;99.90
27900;DHT22;15243;50.726;7.080;2023-01-08T04:23:46;10.60;99.90
27900;DHT22;15243;50.726;7.080;2023-01-08T04:26:13;10.60;99.90
27900;DHT22;15243;50.726;7.080;2023-01-08T04:28:40;10.60;99.90
27900;DHT22;15243;50.726;7.080;2023-01-08T04:31:08;10.60;99.90
27900;DHT22;15243;50.726;7.080;2023-01-08T04:33:35;10.60;99.90
27900;DHT22;15243;50.726;7.080;2023-01-08T04:36:03;10.50;99.90
27900;DHT22;15243;50.726;7.080;2023-01-08T04:38:30;10.50;99.90
27900;DHT22;15243;50.726;7.080;2023-01-08T04:41:01;10.50;99.90
27900;DHT22;15243;50.726;7.080;2023-01-08T04:43:29;10.50;99.90
27900;DHT22;15243;50.726;7.080;2023-01-08T04:45:57;10.50;99.90
27900;DHT22;15243;50.726;7.080;2023-01-08T04:48:25;10.50;99.90
27900;DHT22;15243;50.726;7.080;2023-01-08T04:50:52;10.50;99.90
27900;DHT22;15243;50.726;7.080;2023-01-08T04:53:19;10.50;99.90
27900;DHT22;15243;50.726;7.080;2023-01-08T04:55:46;10.60;99.90
27900;DHT22;15243;50.726;7.080;2023-01-08T04:58:13;10.50;99.90
27900;DHT22;15243;50.726;7.080;2023-01-08T05:00:40;10.40;99.90
27900;DHT22;15243;50.726;7.080;2023-01-08T05:03:07;10.40;99.90
27900;DHT22;15243;50.726;7.080;2023-01-08T05:05:34;10.40;99.90
27900;DHT22;15243;50.726;7.080;2023-01-08T05:08:01;10.40;99.90
27900;DHT22;15243;50.726;7.080;2023-01-08T05:10:28;10.40;99.90
27900;DHT22;15243;50.726;7.080;2023-01-08T05:12:59;10.40;99.90
27900;DHT22;15243;50.726;7.080;2023-01-08T05:15:26;10.40;99.90
27900;DHT22;15243;50.726;7.080;2023-01-08T05:18:00;10.40;99.90
27900;DHT22;15243;50.726;7.080;2023-01-08T05:20:28;10.40;99.90
27900;DHT22;15243;50.726;7.080;2023-01-08T05:22:55;10.40;99.90
27900;DHT22;15243;50.726;7.080;2023-01-08T05:25:24;10.40;99.90
27900;DHT22;15243;50.726;7.080;2023-01-08T05:27:51;10.50;99.90
27900;DHT22;15243;50.726;7.080;2023-01-08T05:30:18;10.30;99.90
27900;DHT22;15243;50.726;7.080;2023-01-08T05:32:45;10.30;99.90
27900;DHT22;15243;50.726;7.080;2023-01-08T05:35:12;10.20;99.90
27900;DHT22;15243;50.726;7.080;2023-01-08T05:37:39;10.10;99.90
27900;DHT22;15243;50.726;7.080;2023-01-08T05:40:06;10.10;99.90
27900;DHT22;15243;50.726;7.080;2023-01-08T05:42:34;10.10;99.90
27900;DHT22;15243;50.726;7.080;2023-01-08T05:45:05;10.10;99.90
27900;DHT22;15243;50.726;7.080;2023-01-08T05:47:33;10.10;99.90
27900;DHT22;15243;50.726;7.080;2023-01-08T05:50:00;10.10;99.90
27900;DHT22;15243;50.726;7.080;2023-01-08T05:52:27;10.10;99.90
27900;DHT22;15243;50.726;7.080;2023-01-08T05:54:54;10.20;99.90
27900;DHT22;15243;50.726;7.080;2023-01-08T05:57:21;10.20;99.90
27900;DHT22;15243;50.726;7.080;2023-01-08T05:59:47;10.20;99.90
27900;DHT22;15243;50.726;7.080;2023-01-08T06:02:14;10.10;99.90
27900;DHT22;15243;50.726;7.080;2023-01-08T06:04:41;10.10;99.90
27900;DHT22;15243;50.726;7.080;2023-01-08T06:07:08;10.10;99.90
27900;DHT22;15243;50.726;7.080;2023-01-08T06:09:35;10.10;99.90
27900;DHT22;15243;50.726;7.080;2023-01-08T06:12:02;10.10;99.90
27900;DHT22;15243;50.726;7.080;2023-01-08T06:14:28;10.20;99.90
27900;DHT22;15243;50.726;7.080;2023-01-08T06:16:55;10.20;99.90
27900;DHT22;15243;50.726;7.080;2023-01-08T06:19:22;10.20;99.90
27900;DHT22;15243;50.726;7.080;2023-01-08T06:21:49;10.20;99.90
27900;DHT22;15243;50.726;7.080;2023-01-08T06:24:16;10.20;99.90
27900;DHT22;15243;50.726;7.080;2023-01-08T06:26:43;10.20;99.90
27900;DHT22;15243;50.726;7.080;2023-01-08T06:29:09;10.20;99.90
27900;DHT22;15243;50.726;7.080;2023-01-08T06:31:36;10.20;99.90
27900;DHT22;15243;50.726;7.080;2023-01-08T06:34:03;10.20;99.90
27900;DHT22;15243;50.726;7.080;2023-01-08T06:36:30;10.10;99.90
27900;DHT22;15243;50.726;7.080;2023-01-08T06:38:56;10.10;99.90
27900;DHT22;15243;50.726;7.080;2023-01-08T06:41:23;10.10;99.90
27900;DHT22;15243;50.726;7.080;2023-01-08T06:43:50;10.10;99.90
27900;DHT22;15243;50.726;7.080;2023-01-08T06:46:17;10.10;99.90
27900;DHT22;15243;50.726;7.080;2023-01-08T06:48:44;10.10;99.90
27900;DHT22;15243;50.726;7.080;2023-01-08T06:51:10;10.00;99.90
27900;DHT22;15243;50.726;7.080;2023-01-08T06:53:37;9.80;99.90
27900;DHT22;15243;50.726;7.080;2023-01-08T06:56:04;9.80;99.90
27900;DHT22;15243;50.726;7.080;2023-01-08T06:58:33;9.70;99.90
27900;DHT22;15243;50.726;7.080;2023-01-08T07:00:59;9.70;99.90
27900;DHT22;15243;50.726;7.080;2023-01-08T07:03:26;9.70;99.90
27900;DHT22;15243;50.726;7.080;2023-01-08T07:05:54;9.70;99.90
27900;DHT22;15243;50.726;7.080;2023-01-08T07:08:21;9.70;99.90
27900;DHT22;15243;50.726;7.080;2023-01-08T07:10:47;9.60;99.90
27900;DHT22;15243;50.726;7.080;2023-01-08T07:13:14;9.70;99.90
27900;DHT22;15243;50.726;7.080;2023-01-08T07:15:41;9.60;99.90
27900;DHT22;15243;50.726;7.080;2023-01-08T07:18:10;9.70;99.90
27900;DHT22;15243;50.726;7.080;2023-01-08T07:20:37;9.80;99.90
27900;DHT22;15243;50.726;7.080;2023-01-08T07:23:05;9.80;99.90
27900;DHT22;15243;50.726;7.080;2023-01-08T07:25:33;9.90;99.90
27900;DHT22;15243;50.726;7.080;2023-01-08T07:27:59;9.90;99.90
27900;DHT22;15243;50.726;7.080;2023-01-08T07:30:28;9.90;99.90
27900;DHT22;15243;50.726;7.080;2023-01-08T07:33:00;9.90;99.90
27900;DHT22;15243;50.726;7.080;2023-01-08T07:35:27;9.80;99.90
27900;DHT22;15243;50.726;7.080;2023-01-08T07:37:54;9.80;99.90
27900;DHT22;15243;50.726;7.080;2023-01-08T07:40:21;9.80;99.90
27900;DHT22;15243;50.726;7.080;2023-01-08T07:42:55;9.70;99.90
27900;DHT22;15243;50.726;7.080;2023-01-08T07:45:22;9.70;99.90
27900;DHT22;15243;50.726;7.080;2023-01-08T07:47:48;9.70;99.90
27900;DHT22;15243;50.726;7.080;2023-01-08T07:50:15;9.70;99.90
27900;DHT22;15243;50.726;7.080;2023-01-08T07:52:42;9.70;99.90
27900;DHT22;15243;50.726;7.080;2023-01-08T07:55:09;9.70;99.90
27900;DHT22;15243;50.726;7.080;2023-01-08T07:57:35;9.70;99.90
27900;DHT22;15243;50.726;7.080;2023-01-08T08:00:03;9.70;99.90
27900;DHT22;15243;50.726;7.080;2023-01-08T08:02:29;9.60;99.90
27900;DHT22;15243;50.726;7.080;2023-01-08T08:04:56;9.60;99.90
27900;DHT22;15243;50.726;7.080;2023-01-08T08:07:23;9.60;99.90
27900;DHT22;15243;50.726;7.080;2023-01-08T08:09:50;9.60;99.90
27900;DHT22;15243;50.726;7.080;2023-01-08T08:12:17;9.60;99.90
27900;DHT22;15243;50.726;7.080;2023-01-08T08:14:44;9.60;99.90
27900;DHT22;15243;50.726;7.080;2023-01-08T08:17:10;9.60;99.90
27900;DHT22;15243;50.726;7.080;2023-01-08T08:19:37;9.60;99.90
27900;DHT22;15243;50.726;7.080;2023-01-08T08:22:04;9.70;99.90
27900;DHT22;15243;50.726;7.080;2023-01-08T08:24:31;9.80;99.90
27900;DHT22;15243;50.726;7.080;2023-01-08T08:26:57;9.70;99.90
27900;DHT22;15243;50.726;7.080;2023-01-08T08:29:24;9.70;99.90
27900;DHT22;15243;50.726;7.080;2023-01-08T08:31:51;9.60;99.90
27900;DHT22;15243;50.726;7.080;2023-01-08T08:34:18;9.70;99.90
27900;DHT22;15243;50.726;7.080;2023-01-08T08:36:48;9.80;99.90
27900;DHT22;15243;50.726;7.080;2023-01-08T08:39:15;9.80;99.90
27900;DHT22;15243;50.726;7.080;2023-01-08T08:41:42;9.70;99.90
27900;DHT22;15243;50.726;7.080;2023-01-08T08:44:09;9.70;99.90
27900;DHT22;15243;50.726;7.080;2023-01-08T08:46:35;9.70;99.90
27900;DHT22;15243;50.726;7.080;2023-01-08T08:49:02;9.70;99.90
27900;DHT22;15243;50.726;7.080;2023-01-08T08:51:29;9.70;99.90
27900;DHT22;15243;50.726;7.080;2023-01-08T08:53:56;9.70;99.90
27900;DHT22;15243;50.726;7.080;2023-01-08T08:56:23;9.60;99.90
27900;DHT22;15243;50.726;7.080;2023-01-08T08:58:49;9.60;99.90
27900;DHT22;15243;50.726;7.080;2023-01-08T09:01:17;9.60;99.90
27900;DHT22;15243;50.726;7.080;2023-01-08T09:03:44;9.70;99.90
27900;DHT22;15243;50.726;7.080;2023-01-08T09:06:12;9.60;99.90
27900;DHT22;15243;50.726;7.080;2023-01-08T09:08:39;9.70;99.90
27900;DHT22;15243;50.726;7.080;2023-01-08T09:11:06;9.60;99.90
27900;DHT22;15243;50.726;7.080;2023-01-08T09:13:34;9.60;99.90
27900;DHT22;15243;50.726;7.080;2023-01-08T09:16:01;9.80;99.90
27900;DHT22;15243;50.726;7.080;2023-01-08T09:18:28;9.90;99.90
27900;DHT22;15243;50.726;7.080;2023-01-08T09:20:55;10.10;99.90
27900;DHT22;15243;50.726;7.080;2023-01-08T09:23:22;10.20;99.90
27900;DHT22;15243;50.726;7.080;2023-01-08T09:25:49;10.50;99.90
27900;DHT22;15243;50.726;7.080;2023-01-08T09:28:16;10.60;99.90
27900;DHT22;15243;50.726;7.080;2023-01-08T09:30:43;10.60;99.90
27900;DHT22;15243;50.726;7.080;2023-01-08T09:33:10;10.60;99.90
27900;DHT22;15243;50.726;7.080;2023-01-08T09:35:36;10.60;99.90
27900;DHT22;15243;50.726;7.080;2023-01-08T09:38:03;10.70;99.90
27900;DHT22;15243;50.726;7.080;2023-01-08T09:40:39;10.70;99.90
27900;DHT22;15243;50.726;7.080;2023-01-08T09:43:15;10.80;99.90
27900;DHT22;15243;50.726;7.080;2023-01-08T09:45:46;10.90;99.90
27900;DHT22;15243;50.726;7.080;2023-01-08T09:48:16;10.90;99.90
27900;DHT22;15243;50.726;7.080;2023-01-08T09:50:45;10.60;99.90
27900;DHT22;15243;50.726;7.080;2023-01-08T09:53:14;10.50;99.90
27900;DHT22;15243;50.726;7.080;2023-01-08T09:55:43;10.40;99.90
27900;DHT22;15243;50.726;7.080;2023-01-08T09:58:36;10.30;99.90
27900;DHT22;15243;50.726;7.080;2023-01-08T10:01:04;10.40;99.90
27900;DHT22;15243;50.726;7.080;2023-01-08T10:06:22;10.70;99.90
27900;DHT22;15243;50.726;7.080;2023-01-08T10:08:50;10.60;99.90
27900;DHT22;15243;50.726;7.080;2023-01-08T10:11:18;10.60;99.90
27900;DHT22;15243;50.726;7.080;2023-01-08T10:13:51;10.50;99.90
27900;DHT22;15243;50.726;7.080;2023-01-08T10:18:50;10.30;99.90
27900;DHT22;15243;50.726;7.080;2023-01-08T10:21:17;10.30;99.90
27900;DHT22;15243;50.726;7.080;2023-01-08T10:26:47;10.20;99.90
27900;DHT22;15243;50.726;7.080;2023-01-08T10:29:17;10.20;99.90
27900;DHT22;15243;50.726;7.080;2023-01-08T10:31:50;10.20;99.90
27900;DHT22;15243;50.726;7.080;2023-01-08T10:37:00;10.40;99.90
27900;DHT22;15243;50.726;7.080;2023-01-08T10:39:28;10.40;99.90
27900;DHT22;15243;50.726;7.080;2023-01-08T10:42:03;10.30;99.90
27900;DHT22;15243;50.726;7.080;2023-01-08T10:44:31;10.30;99.90
27900;DHT22;15243;50.726;7.080;2023-01-08T10:46:59;10.30;99.90
27900;DHT22;15243;50.726;7.080;2023-01-08T10:49:36;10.40;99.90
27900;DHT22;15243;50.726;7.080;2023-01-08T10:52:05;10.50;99.90
27900;DHT22;15243;50.726;7.080;2023-01-08T10:54:37;10.50;99.90
27900;DHT22;15243;50.726;7.080;2023-01-08T10:57:38;10.50;99.90
27900;DHT22;15243;50.726;7.080;2023-01-08T11:00:20;10.60;99.90
27900;DHT22;15243;50.726;7.080;2023-01-08T11:02:47;10.60;99.90
27900;DHT22;15243;50.726;7.080;2023-01-08T11:05:16;10.80;99.90
27900;DHT22;15243;50.726;7.080;2023-01-08T11:07:47;10.80;99.90
27900;DHT22;15243;50.726;7.080;2023-01-08T11:10:23;10.80;99.90
27900;DHT22;15243;50.726;7.080;2023-01-08T11:13:00;10.80;99.90
27900;DHT22;15243;50.726;7.080;2023-01-08T11:15:38;10.90;99.90
27900;DHT22;15243;50.726;7.080;2023-01-08T11:18:17;11.00;99.90
27900;DHT22;15243;50.726;7.080;2023-01-08T11:20:45;11.40;99.90
27900;DHT22;15243;50.726;7.080;2023-01-08T11:23:14;11.50;99.90
27900;DHT22;15243;50.726;7.080;2023-01-08T11:26:06;11.30;99.90
27900;DHT22;15243;50.726;7.080;2023-01-08T11:31:26;11.30;99.90
27900;DHT22;15243;50.726;7.080;2023-01-08T11:34:01;11.10;99.90
27900;DHT22;15243;50.726;7.080;2023-01-08T11:36:36;11.10;99.90
27900;DHT22;15243;50.726;7.080;2023-01-08T11:39:06;11.20;99.90
27900;DHT22;15243;50.726;7.080;2023-01-08T11:41:59;11.00;99.90
27900;DHT22;15243;50.726;7.080;2023-01-08T11:44:43;10.90;99.90
27900;DHT22;15243;50.726;7.080;2023-01-08T11:50:28;11.20;99.90
27900;DHT22;15243;50.726;7.080;2023-01-08T11:55:59;11.50;99.90
27900;DHT22;15243;50.726;7.080;2023-01-08T11:59:04;11.50;99.90
27900;DHT22;15243;50.726;7.080;2023-01-08T12:01:47;11.60;99.90
27900;DHT22;15243;50.726;7.080;2023-01-08T12:07:18;11.60;99.90
27900;DHT22;15243;50.726;7.080;2023-01-08T12:09:55;11.60;99.90
27900;DHT22;15243;50.726;7.080;2023-01-08T12:26:40;11.50;99.90
27900;DHT22;15243;50.726;7.080;2023-01-08T12:32:32;11.70;99.90
27900;DHT22;15243;50.726;7.080;2023-01-08T12:35:16;11.80;99.90
27900;DHT22;15243;50.726;7.080;2023-01-08T12:41:19;12.10;99.90
27900;DHT22;15243;50.726;7.080;2023-01-08T12:43:28;12.00;99.90
27900;DHT22;15243;50.726;7.080;2023-01-08T12:45:59;12.30;99.90
27900;DHT22;15243;50.726;7.080;2023-01-08T12:48:29;12.10;99.90
27900;DHT22;15243;50.726;7.080;2023-01-08T12:51:07;12.00;99.70
27900;DHT22;15243;50.726;7.080;2023-01-08T12:53:57;12.00;99.90
27900;DHT22;15243;50.726;7.080;2023-01-08T12:56:45;12.00;99.90
27900;DHT22;15243;50.726;7.080;2023-01-08T12:59:31;11.90;99.90
27900;DHT22;15243;50.726;7.080;2023-01-08T13:04:43;11.90;99.90
27900;DHT22;15243;50.726;7.080;2023-01-08T13:07:34;11.80;99.90
27900;DHT22;15243;50.726;7.080;2023-01-08T13:10:07;11.70;99.90
27900;DHT22;15243;50.726;7.080;2023-01-08T13:12:39;11.70;99.90
27900;DHT22;15243;50.726;7.080;2023-01-08T13:15:07;11.80;99.90
27900;DHT22;15243;50.726;7.080;2023-01-08T13:17:36;11.70;99.90
27900;DHT22;15243;50.726;7.080;2023-01-08T13:20:05;11.60;98.40
27900;DHT22;15243;50.726;7.080;2023-01-08T13:22:34;11.60;99.90
27900;DHT22;15243;50.726;7.080;2023-01-08T13:27:41;11.50;99.90
27900;DHT22;15243;50.726;7.080;2023-01-08T13:32:57;11.60;95.70
27900;DHT22;15243;50.726;7.080;2023-01-08T13:35:35;11.60;95.70
27900;DHT22;15243;50.726;7.080;2023-01-08T13:38:15;11.60;99.60
27900;DHT22;15243;50.726;7.080;2023-01-08T13:43:19;11.50;99.90
27900;DHT22;15243;50.726;7.080;2023-01-08T13:46:06;11.60;99.90
27900;DHT22;15243;50.726;7.080;2023-01-08T13:48:46;11.50;99.90
27900;DHT22;15243;50.726;7.080;2023-01-08T13:51:29;11.40;99.90
27900;DHT22;15243;50.726;7.080;2023-01-08T13:56:39;11.40;99.90
27900;DHT22;15243;50.726;7.080;2023-01-08T14:01:53;11.50;99.90
27900;DHT22;15243;50.726;7.080;2023-01-08T14:04:21;11.50;99.90
27900;DHT22;15243;50.726;7.080;2023-01-08T14:06:48;11.50;99.90
27900;DHT22;15243;50.726;7.080;2023-01-08T14:09:23;11.40;99.90
27900;DHT22;15243;50.726;7.080;2023-01-08T14:11:52;11.30;99.90
27900;DHT22;15243;50.726;7.080;2023-01-08T14:14:22;11.30;99.90
27900;DHT22;15243;50.726;7.080;2023-01-08T14:16:51;11.20;99.90
27900;DHT22;15243;50.726;7.080;2023-01-08T14:19:23;11.10;99.90
27900;DHT22;15243;50.726;7.080;2023-01-08T14:21:56;10.90;99.90
27900;DHT22;15243;50.726;7.080;2023-01-08T14:24:24;10.80;99.90
27900;DHT22;15243;50.726;7.080;2023-01-08T14:26:54;10.90;99.90
27900;DHT22;15243;50.726;7.080;2023-01-08T14:29:23;10.70;99.90
27900;DHT22;15243;50.726;7.080;2023-01-08T14:31:53;10.70;99.90
27900;DHT22;15243;50.726;7.080;2023-01-08T14:34:22;10.80;99.90
27900;DHT22;15243;50.726;7.080;2023-01-08T14:36:51;10.90;99.90
27900;DHT22;15243;50.726;7.080;2023-01-08T14:39:33;10.90;99.90
27900;DHT22;15243;50.726;7.080;2023-01-08T14:42:29;10.80;99.90
27900;DHT22;15243;50.726;7.080;2023-01-08T14:45:20;10.70;99.90
27900;DHT22;15243;50.726;7.080;2023-01-08T14:47:51;10.60;99.90
27900;DHT22;15243;50.726;7.080;2023-01-08T14:50:25;10.50;99.90
27900;DHT22;15243;50.726;7.080;2023-01-08T14:52:56;10.40;99.90
27900;DHT22;15243;50.726;7.080;2023-01-08T14:55:25;10.50;99.90
27900;DHT22;15243;50.726;7.080;2023-01-08T14:57:54;10.40;99.90
27900;DHT22;15243;50.726;7.080;2023-01-08T15:00:25;10.30;99.90
27900;DHT22;15243;50.726;7.080;2023-01-08T15:02:53;10.30;99.90
27900;DHT22;15243;50.726;7.080;2023-01-08T15:05:28;10.30;99.90
27900;DHT22;15243;50.726;7.080;2023-01-08T15:08:02;10.20;99.90
27900;DHT22;15243;50.726;7.080;2023-01-08T15:10:40;10.10;99.90
27900;DHT22;15243;50.726;7.080;2023-01-08T15:13:24;10.10;99.90
27900;DHT22;15243;50.726;7.080;2023-01-08T15:15:57;10.00;99.90
27900;DHT22;15243;50.726;7.080;2023-01-08T15:18:25;10.00;99.90
27900;DHT22;15243;50.726;7.080;2023-01-08T15:20:52;10.00;99.90
27900;DHT22;15243;50.726;7.080;2023-01-08T15:23:26;9.90;99.90
27900;DHT22;15243;50.726;7.080;2023-01-08T15:25:54;9.90;99.90
27900;DHT22;15243;50.726;7.080;2023-01-08T15:28:22;9.80;99.90
27900;DHT22;15243;50.726;7.080;2023-01-08T15:30:49;9.80;99.90
27900;DHT22;15243;50.726;7.080;2023-01-08T15:33:24;9.70;99.90
27900;DHT22;15243;50.726;7.080;2023-01-08T15:35:52;9.70;99.90
27900;DHT22;15243;50.726;7.080;2023-01-08T15:38:19;9.70;99.90
27900;DHT22;15243;50.726;7.080;2023-01-08T15:40:50;9.70;99.90
27900;DHT22;15243;50.726;7.080;2023-01-08T15:43:18;9.60;99.90
27900;DHT22;15243;50.726;7.080;2023-01-08T15:45:47;9.60;99.90
27900;DHT22;15243;50.726;7.080;2023-01-08T15:48:14;9.60;99.90
27900;DHT22;15243;50.726;7.080;2023-01-08T15:50:42;9.60;99.90
27900;DHT22;15243;50.726;7.080;2023-01-08T15:53:16;9.60;99.90
27900;DHT22;15243;50.726;7.080;2023-01-08T15:55:44;9.50;99.90
27900;DHT22;15243;50.726;7.080;2023-01-08T15:58:13;9.50;99.90
27900;DHT22;15243;50.726;7.080;2023-01-08T16:00:42;9.40;99.90
27900;DHT22;15243;50.726;7.080;2023-01-08T16:03:11;9.40;99.90
27900;DHT22;15243;50.726;7.080;2023-01-08T16:05:39;9.40;99.90
27900;DHT22;15243;50.726;7.080;2023-01-08T16:08:06;9.40;99.90
27900;DHT22;15243;50.726;7.080;2023-01-08T16:10:33;9.40;99.90
27900;DHT22;15243;50.726;7.080;2023-01-08T16:13:00;9.30;99.90
27900;DHT22;15243;50.726;7.080;2023-01-08T16:15:28;9.30;99.90
27900;DHT22;15243;50.726;7.080;2023-01-08T16:17:57;9.30;99.90
27900;DHT22;15243;50.726;7.080;2023-01-08T16:20:25;9.30;99.90
27900;DHT22;15243;50.726;7.080;2023-01-08T16:22:52;9.30;99.90
27900;DHT22;15243;50.726;7.080;2023-01-08T16:25:20;9.30;99.90
27900;DHT22;15243;50.726;7.080;2023-01-08T16:27:47;9.40;99.90
27900;DHT22;15243;50.726;7.080;2023-01-08T16:30:14;9.30;99.90
27900;DHT22;15243;50.726;7.080;2023-01-08T16:32:41;9.20;99.90
27900;DHT22;15243;50.726;7.080;2023-01-08T16:35:10;9.20;99.90
27900;DHT22;15243;50.726;7.080;2023-01-08T16:37:37;9.20;99.90
27900;DHT22;15243;50.726;7.080;2023-01-08T16:40:05;9.10;99.90
27900;DHT22;15243;50.726;7.080;2023-01-08T16:42:32;9.20;99.90
27900;DHT22;15243;50.726;7.080;2023-01-08T16:44:59;9.20;99.90
27900;DHT22;15243;50.726;7.080;2023-01-08T16:47:26;9.20;99.90
27900;DHT22;15243;50.726;7.080;2023-01-08T16:49:53;9.10;99.90
27900;DHT22;15243;50.726;7.080;2023-01-08T16:52:20;9.00;99.90
27900;DHT22;15243;50.726;7.080;2023-01-08T16:54:47;9.00;99.90
27900;DHT22;15243;50.726;7.080;2023-01-08T16:57:14;9.00;99.90
27900;DHT22;15243;50.726;7.080;2023-01-08T16:59:40;8.90;99.90
27900;DHT22;15243;50.726;7.080;2023-01-08T17:02:08;9.00;99.90
27900;DHT22;15243;50.726;7.080;2023-01-08T17:04:36;9.00;99.90
27900;DHT22;15243;50.726;7.080;2023-01-08T17:07:03;9.00;99.90
27900;DHT22;15243;50.726;7.080;2023-01-08T17:09:30;8.90;99.90
27900;DHT22;15243;50.726;7.080;2023-01-08T17:11:57;9.00;99.90